sensor_id;sensor_type;location;lat;lon;timestamp;pressure;altitude;pressure_sealevel;temperature;humidity
13312;BME280;34033;48.672;9.376;2023-02-23T00:01:10;98203.88;;;10.16;68.17
13312;BME280;34033;48.672;9.376;2023-02-23T00:03:35;98207.41;;;10.06;68.91
13312;BME280;34033;48.672;9.376;2023-02-23T00:06:04;98200.16;;;9.94;69.59
13312;BME280;34033;48.672;9.376;2023-02-23T00:08:29;98204.94;;;9.94;69.37
13312;BME280;34033;48.672;9.376;2023-02-23T00:10:55;98202.19;;;9.97;69.88
13312;BME280;34033;48.672;9.376;2023-02-23T00:13:22;98203.81;;;10.02;69.77
13312;BME280;34033;48.672;9.376;2023-02-23T00:15:48;98207.78;;;10.04;69.64
13312;BME280;34033;48.672;9.376;2023-02-23T00:18:13;98204.22;;;10.08;69.44
13312;BME280;34033;48.672;9.376;2023-02-23T00:20:38;98201.81;;;10.10;69.90
13312;BME280;34033;48.672;9.376;2023-02-23T00:23:08;98207.41;;;10.10;69.51
13312;BME280;34033;48.672;9.376;2023-02-23T00:25:33;98197.84;;;10.11;69.36
13312;BME280;34033;48.672;9.376;2023-02-23T00:28:03;98203.44;;;10.11;69.60
13312;BME280;34033;48.672;9.376;2023-02-23T00:30:31;98199.06;;;10.13;69.59
13312;BME280;34033;48.672;9.376;2023-02-23T00:32:56;98201.06;;;10.13;69.99
13312;BME280;34033;48.672;9.376;2023-02-23T00:35:21;98201.84;;;10.13;69.77
13312;BME280;34033;48.672;9.376;2023-02-23T00:37:49;98196.66;;;10.12;69.99
13312;BME280;34033;48.672;9.376;2023-02-23T00:40:16;98199.44;;;10.12;69.71
13312;BME280;34033;48.672;9.376;2023-02-23T00:42:43;98196.25;;;10.13;70.15
13312;BME280;34033;48.672;9.376;2023-02-23T00:45:10;98199.44;;;10.12;70.69
13312;BME280;34033;48.672;9.376;2023-02-23T00:47:38;98198.66;;;10.15;70.65
13312;BME280;34033;48.672;9.376;2023-02-23T00:50:04;98199.44;;;10.15;70.16
13312;BME280;34033;48.672;9.376;2023-02-23T00:52:29;98199.44;;;10.15;70.43
13312;BME280;34033;48.672;9.376;2023-02-23T00:54:55;98205.84;;;10.16;70.33
13312;BME280;34033;48.672;9.376;2023-02-23T00:57:21;98204.66;;;10.13;70.73
13312;BME280;34033;48.672;9.376;2023-02-23T00:59:47;98201.81;;;10.10;70.87
13312;BME280;34033;48.672;9.376;2023-02-23T01:02:13;98201.44;;;10.08;71.02
13312;BME280;34033;48.672;9.376;2023-02-23T01:04:38;98200.22;;;10.05;71.09
13312;BME280;34033;48.672;9.376;2023-02-23T01:07:04;98201.00;;;10.02;70.91
13312;BME280;34033;48.672;9.376;2023-02-23T01:09:31;98200.22;;;10.01;71.18
13312;BME280;34033;48.672;9.376;2023-02-23T01:11:56;98200.97;;;9.98;71.45
13312;BME280;34033;48.672;9.376;2023-02-23T01:14:26;98199.78;;;9.99;71.32
13312;BME280;34033;48.672;9.376;2023-02-23T01:16:52;98200.22;;;10.01;71.29
13312;BME280;34033;48.672;9.376;2023-02-23T01:19:18;98190.22;;;10.00;71.39
13312;BME280;34033;48.672;9.376;2023-02-23T01:21:43;98192.59;;;9.98;71.65
13312;BME280;34033;48.672;9.376;2023-02-23T01:24:09;98193.78;;;9.90;71.35
13312;BME280;34033;48.672;9.376;2023-02-23T01:26:38;98191.75;;;9.84;71.56
13312;BME280;34033;48.672;9.376;2023-02-23T01:29:09;98186.16;;;9.87;72.91
13312;BME280;34033;48.672;9.376;2023-02-23T01:31:38;98196.97;;;9.92;73.40
13312;BME280;34033;48.672;9.376;2023-02-23T01:34:04;98194.59;;;9.94;73.78
13312;BME280;34033;48.672;9.376;2023-02-23T01:36:33;98194.19;;;9.99;73.75
13312;BME280;34033;48.672;9.376;2023-02-23T01:38:59;98189.03;;;10.01;73.70
13312;BME280;34033;48.672;9.376;2023-02-23T01:41:26;98193.00;;;10.00;74.29
13312;BME280;34033;48.672;9.376;2023-02-23T01:46:40;98196.19;;;9.95;74.83
13312;BME280;34033;48.672;9.376;2023-02-23T01:49:08;98189.78;;;9.91;75.41
13312;BME280;34033;48.672;9.376;2023-02-23T01:51:46;98191.69;;;9.73;76.75
13312;BME280;34033;48.672;9.376;2023-02-23T01:54:17;98183.22;;;9.55;76.73
13312;BME280;34033;48.672;9.376;2023-02-23T01:56:46;98185.25;;;9.62;76.68
13312;BME280;34033;48.672;9.376;2023-02-23T01:59:15;98195.28;;;9.70;78.14
13312;BME280;34033;48.672;9.376;2023-02-23T02:01:42;98187.72;;;9.74;77.83
13312;BME280;34033;48.672;9.376;2023-02-23T02:04:09;98183.75;;;9.79;77.99
13312;BME280;34033;48.672;9.376;2023-02-23T02:06:40;98182.19;;;9.81;77.61
13312;BME280;34033;48.672;9.376;2023-02-23T02:09:09;98171.41;;;9.83;77.53
13312;BME280;34033;48.672;9.376;2023-02-23T02:11:47;98173.00;;;9.84;78.04
13312;BME280;34033;48.672;9.376;2023-02-23T02:14:25;98179.00;;;9.86;78.18
13312;BME280;34033;48.672;9.376;2023-02-23T02:17:26;98177.00;;;9.87;78.30
13312;BME280;34033;48.672;9.376;2023-02-23T02:42:21;98161.84;;;9.84;78.19
13312;BME280;34033;48.672;9.376;2023-02-23T02:45:02;98163.81;;;9.84;78.42
13312;BME280;34033;48.672;9.376;2023-02-23T02:47:37;98158.63;;;9.82;78.53
13312;BME280;34033;48.672;9.376;2023-02-23T02:52:52;98154.66;;;9.80;78.97
13312;BME280;34033;48.672;9.376;2023-02-23T02:55:25;98162.63;;;9.81;79.07
13312;BME280;34033;48.672;9.376;2023-02-23T02:57:55;98158.19;;;9.77;79.22
13312;BME280;34033;48.672;9.376;2023-02-23T03:00:31;98151.81;;;9.76;79.36
13312;BME280;34033;48.672;9.376;2023-02-23T03:06:12;98160.22;;;9.80;79.86
13312;BME280;34033;48.672;9.376;2023-02-23T03:21:17;98153.38;;;9.67;80.94
13312;BME280;34033;48.672;9.376;2023-02-23T03:27:10;98156.97;;;9.67;81.04
13312;BME280;34033;48.672;9.376;2023-02-23T03:30:06;98164.16;;;9.72;80.53
13312;BME280;34033;48.672;9.376;2023-02-23T03:32:54;98158.19;;;9.73;80.66
13312;BME280;34033;48.672;9.376;2023-02-23T03:38:37;98155.81;;;9.75;80.50
13312;BME280;34033;48.672;9.376;2023-02-23T03:41:23;98153.03;;;9.75;80.28
13312;BME280;34033;48.672;9.376;2023-02-23T03:44:14;98157.78;;;9.71;80.70
13312;BME280;34033;48.672;9.376;2023-02-23T03:47:00;98155.00;;;9.71;81.03
13312;BME280;34033;48.672;9.376;2023-02-23T03:49:48;98153.81;;;9.72;80.91
13312;BME280;34033;48.672;9.376;2023-02-23T03:52:40;98166.16;;;9.71;80.72
13312;BME280;34033;48.672;9.376;2023-02-23T03:55:32;98158.56;;;9.72;80.25
13312;BME280;34033;48.672;9.376;2023-02-23T03:58:21;98152.19;;;9.71;80.33
13312;BME280;34033;48.672;9.376;2023-02-23T04:01:08;98162.59;;;9.74;80.87
13312;BME280;34033;48.672;9.376;2023-02-23T04:03:55;98155.41;;;9.77;80.92
13312;BME280;34033;48.672;9.376;2023-02-23T04:06:43;98167.41;;;9.81;80.73
13312;BME280;34033;48.672;9.376;2023-02-23T04:09:28;98164.19;;;9.79;80.54
13312;BME280;34033;48.672;9.376;2023-02-23T04:12:31;98164.19;;;9.79;80.83
13312;BME280;34033;48.672;9.376;2023-02-23T04:15:26;98160.72;;;10.07;86.07
13312;BME280;34033;48.672;9.376;2023-02-23T04:17:52;98169.09;;;10.03;80.90
13312;BME280;34033;48.672;9.376;2023-02-23T04:20:18;98165.09;;;10.00;79.80
13312;BME280;34033;48.672;9.376;2023-02-23T04:22:44;98169.47;;;9.98;79.57
13312;BME280;34033;48.672;9.376;2023-02-23T04:25:10;98167.03;;;9.93;79.53
13312;BME280;34033;48.672;9.376;2023-02-23T04:27:37;98156.28;;;9.91;80.00
13312;BME280;34033;48.672;9.376;2023-02-23T04:30:03;98161.47;;;9.89;80.19
13312;BME280;34033;48.672;9.376;2023-02-23T04:32:28;98163.81;;;9.84;80.39
13312;BME280;34033;48.672;9.376;2023-02-23T04:34:54;98166.63;;;9.80;80.63
13312;BME280;34033;48.672;9.376;2023-02-23T04:37:19;98163.41;;;9.78;80.85
13312;BME280;34033;48.672;9.376;2023-02-23T04:39:44;98158.16;;;9.66;81.45
13312;BME280;34033;48.672;9.376;2023-02-23T04:42:13;98163.69;;;9.52;82.36
13312;BME280;34033;48.672;9.376;2023-02-23T04:44:39;98173.66;;;9.60;82.25
13312;BME280;34033;48.672;9.376;2023-02-23T04:47:04;98167.72;;;9.65;82.50
13312;BME280;34033;48.672;9.376;2023-02-23T04:49:30;98170.53;;;9.69;83.27
13312;BME280;34033;48.672;9.376;2023-02-23T04:51:55;98176.50;;;9.67;83.05
13312;BME280;34033;48.672;9.376;2023-02-23T04:54:20;98162.94;;;9.62;83.45
13312;BME280;34033;48.672;9.376;2023-02-23T04:56:46;98173.72;;;9.63;83.10
13312;BME280;34033;48.672;9.376;2023-02-23T04:59:11;98172.91;;;9.63;83.47
13312;BME280;34033;48.672;9.376;2023-02-23T05:01:37;98171.72;;;9.64;83.58
13312;BME280;34033;48.672;9.376;2023-02-23T05:04:03;98174.47;;;9.57;83.89
13312;BME280;34033;48.672;9.376;2023-02-23T05:06:29;98170.50;;;9.58;84.18
13312;BME280;34033;48.672;9.376;2023-02-23T05:08:54;98166.47;;;9.52;84.94
13312;BME280;34033;48.672;9.376;2023-02-23T05:11:20;98170.06;;;9.56;84.55
13312;BME280;34033;48.672;9.376;2023-02-23T05:13:45;98169.41;;;9.87;84.69
13312;BME280;34033;48.672;9.376;2023-02-23T05:16:10;98162.78;;;10.20;84.06
13312;BME280;34033;48.672;9.376;2023-02-23T05:18:36;98166.03;;;10.43;82.59
13312;BME280;34033;48.672;9.376;2023-02-23T05:21:06;98166.44;;;10.49;81.45
13312;BME280;34033;48.672;9.376;2023-02-23T05:23:33;98162.47;;;10.50;81.03
13312;BME280;34033;48.672;9.376;2023-02-23T05:26:08;98166.84;;;10.55;81.15
13312;BME280;34033;48.672;9.376;2023-02-23T05:28:35;98162.06;;;10.59;80.58
13312;BME280;34033;48.672;9.376;2023-02-23T05:31:01;98159.69;;;10.64;80.41
13312;BME280;34033;48.672;9.376;2023-02-23T05:33:28;98165.69;;;10.66;79.59
13312;BME280;34033;48.672;9.376;2023-02-23T05:35:54;98167.66;;;10.66;79.61
13312;BME280;34033;48.672;9.376;2023-02-23T05:38:19;98163.69;;;10.63;79.38
13312;BME280;34033;48.672;9.376;2023-02-23T05:40:45;98162.88;;;10.59;79.42
13312;BME280;34033;48.672;9.376;2023-02-23T05:43:10;98172.47;;;10.58;79.45
13312;BME280;34033;48.672;9.376;2023-02-23T05:45:39;98170.88;;;10.57;79.27
13312;BME280;34033;48.672;9.376;2023-02-23T05:48:06;98161.69;;;10.57;79.09
13312;BME280;34033;48.672;9.376;2023-02-23T05:50:31;98175.66;;;10.57;79.19
13312;BME280;34033;48.672;9.376;2023-02-23T05:52:57;98176.47;;;10.57;79.01
13312;BME280;34033;48.672;9.376;2023-02-23T05:55:22;98172.47;;;10.58;78.77
13312;BME280;34033;48.672;9.376;2023-02-23T05:57:48;98168.47;;;10.59;78.63
13312;BME280;34033;48.672;9.376;2023-02-23T06:00:14;98170.06;;;10.60;78.56
13312;BME280;34033;48.672;9.376;2023-02-23T06:02:40;98171.25;;;10.59;78.67
13312;BME280;34033;48.672;9.376;2023-02-23T06:05:07;98171.66;;;10.58;78.83
13312;BME280;34033;48.672;9.376;2023-02-23T06:07:32;98176.47;;;10.57;79.03
13312;BME280;34033;48.672;9.376;2023-02-23T06:09:58;98177.25;;;10.58;79.00
13312;BME280;34033;48.672;9.376;2023-02-23T06:12:23;98176.47;;;10.57;79.05
13312;BME280;34033;48.672;9.376;2023-02-23T06:14:48;98178.84;;;10.52;79.22
13312;BME280;34033;48.672;9.376;2023-02-23T06:17:15;98178.00;;;10.37;80.06
13312;BME280;34033;48.672;9.376;2023-02-23T06:19:40;98178.41;;;10.39;80.27
13312;BME280;34033;48.672;9.376;2023-02-23T06:22:06;98178.03;;;10.44;80.43
13312;BME280;34033;48.672;9.376;2023-02-23T06:24:31;98180.81;;;10.44;80.55
13312;BME280;34033;48.672;9.376;2023-02-23T06:26:58;98189.59;;;10.46;80.51
13312;BME280;34033;48.672;9.376;2023-02-23T06:29:23;98184.81;;;10.50;80.85
13312;BME280;34033;48.672;9.376;2023-02-23T06:31:49;98186.03;;;10.53;80.31
13312;BME280;34033;48.672;9.376;2023-02-23T06:34:14;98187.63;;;10.54;80.05
13312;BME280;34033;48.672;9.376;2023-02-23T06:36:39;98196.00;;;10.54;80.14
13312;BME280;34033;48.672;9.376;2023-02-23T06:39:05;98194.41;;;10.56;80.70
13312;BME280;34033;48.672;9.376;2023-02-23T06:41:31;98203.59;;;10.60;80.10
13312;BME280;34033;48.672;9.376;2023-02-23T06:43:56;98203.22;;;10.62;79.76
13312;BME280;34033;48.672;9.376;2023-02-23T06:46:22;98202.03;;;10.66;79.47
13312;BME280;34033;48.672;9.376;2023-02-23T06:48:48;98210.03;;;10.68;78.68
13312;BME280;34033;48.672;9.376;2023-02-23T06:51:14;98197.66;;;10.69;79.11
13312;BME280;34033;48.672;9.376;2023-02-23T06:53:39;98202.00;;;10.70;78.89
13312;BME280;34033;48.672;9.376;2023-02-23T06:56:05;98210.81;;;10.68;78.97
13312;BME280;34033;48.672;9.376;2023-02-23T06:58:30;98214.41;;;10.69;79.00
13312;BME280;34033;48.672;9.376;2023-02-23T07:00:56;98208.81;;;10.69;79.22
13312;BME280;34033;48.672;9.376;2023-02-23T07:03:22;98216.38;;;10.65;79.06
13312;BME280;34033;48.672;9.376;2023-02-23T07:05:48;98218.00;;;10.62;79.29
13312;BME280;34033;48.672;9.376;2023-02-23T07:08:17;98216.38;;;10.61;79.56
13312;BME280;34033;48.672;9.376;2023-02-23T07:10:43;98218.00;;;10.62;79.93
13312;BME280;34033;48.672;9.376;2023-02-23T07:13:09;98229.97;;;10.66;79.87
13312;BME280;34033;48.672;9.376;2023-02-23T07:15:38;98230.78;;;10.67;79.76
13312;BME280;34033;48.672;9.376;2023-02-23T07:18:04;98225.19;;;10.67;79.16
13312;BME280;34033;48.672;9.376;2023-02-23T07:20:30;98232.00;;;10.69;79.12
13312;BME280;34033;48.672;9.376;2023-02-23T07:22:57;98230.00;;;10.73;78.82
13312;BME280;34033;48.672;9.376;2023-02-23T07:25:22;98229.19;;;10.76;78.87
13312;BME280;34033;48.672;9.376;2023-02-23T07:27:47;98232.41;;;10.78;78.90
13312;BME280;34033;48.672;9.376;2023-02-23T07:30:13;98232.41;;;10.78;78.58
13312;BME280;34033;48.672;9.376;2023-02-23T07:32:40;98232.41;;;10.78;78.50
13312;BME280;34033;48.672;9.376;2023-02-23T07:35:05;98234.38;;;10.81;78.58
13312;BME280;34033;48.672;9.376;2023-02-23T07:37:31;98236.00;;;10.82;78.30
13312;BME280;34033;48.672;9.376;2023-02-23T07:39:56;98238.81;;;10.86;78.58
13312;BME280;34033;48.672;9.376;2023-02-23T07:42:22;98240.41;;;10.83;78.77
13312;BME280;34033;48.672;9.376;2023-02-23T07:44:47;98238.00;;;10.82;79.03
13312;BME280;34033;48.672;9.376;2023-02-23T07:47:12;98241.59;;;10.82;78.85
13312;BME280;34033;48.672;9.376;2023-02-23T07:49:38;98240.78;;;10.82;79.23
13312;BME280;34033;48.672;9.376;2023-02-23T07:52:03;98236.03;;;10.86;78.86
13312;BME280;34033;48.672;9.376;2023-02-23T07:54:28;98242.38;;;10.86;78.94
13312;BME280;34033;48.672;9.376;2023-02-23T07:56:54;98238.41;;;10.87;79.18
13312;BME280;34033;48.672;9.376;2023-02-23T07:59:19;98240.78;;;10.93;79.52
13312;BME280;34033;48.672;9.376;2023-02-23T08:01:45;98244.41;;;10.97;78.98
13312;BME280;34033;48.672;9.376;2023-02-23T08:04:10;98241.59;;;11.04;79.79
13312;BME280;34033;48.672;9.376;2023-02-23T08:06:35;98238.81;;;11.11;79.10
13312;BME280;34033;48.672;9.376;2023-02-23T08:09:02;98242.03;;;11.13;79.04
13312;BME280;34033;48.672;9.376;2023-02-23T08:11:28;98238.84;;;11.18;78.86
13312;BME280;34033;48.672;9.376;2023-02-23T08:13:54;98240.03;;;11.17;78.58
13312;BME280;34033;48.672;9.376;2023-02-23T08:16:27;98239.63;;;11.22;78.51
13312;BME280;34033;48.672;9.376;2023-02-23T08:18:53;98242.44;;;11.22;78.36
13312;BME280;34033;48.672;9.376;2023-02-23T08:21:18;98240.81;;;11.21;78.49
13312;BME280;34033;48.672;9.376;2023-02-23T08:23:43;98245.63;;;11.24;78.31
13312;BME280;34033;48.672;9.376;2023-02-23T08:26:09;98248.00;;;11.25;78.40
13312;BME280;34033;48.672;9.376;2023-02-23T08:28:36;98246.03;;;11.26;78.92
13312;BME280;34033;48.672;9.376;2023-02-23T08:31:01;98254.81;;;11.32;78.57
13312;BME280;34033;48.672;9.376;2023-02-23T08:33:26;98258.44;;;11.39;78.18
13312;BME280;34033;48.672;9.376;2023-02-23T08:35:52;98252.41;;;11.48;78.25
13312;BME280;34033;48.672;9.376;2023-02-23T08:38:17;98250.41;;;11.62;77.34
13312;BME280;34033;48.672;9.376;2023-02-23T08:40:43;98256.78;;;11.81;75.67
13312;BME280;34033;48.672;9.376;2023-02-23T08:43:08;98247.19;;;11.82;75.80
13312;BME280;34033;48.672;9.376;2023-02-23T08:45:33;98247.97;;;11.86;75.23
13312;BME280;34033;48.672;9.376;2023-02-23T08:47:59;98260.00;;;11.90;75.21
13312;BME280;34033;48.672;9.376;2023-02-23T08:50:24;98245.97;;;11.86;75.66
13312;BME280;34033;48.672;9.376;2023-02-23T08:52:49;98255.59;;;11.96;75.15
13312;BME280;34033;48.672;9.376;2023-02-23T08:55:15;98246.75;;;12.01;74.79
13312;BME280;34033;48.672;9.376;2023-02-23T08:57:42;98254.75;;;11.99;75.31
13312;BME280;34033;48.672;9.376;2023-02-23T09:00:08;98256.38;;;11.93;74.97
13312;BME280;34033;48.672;9.376;2023-02-23T09:02:41;98255.59;;;11.89;74.87
13312;BME280;34033;48.672;9.376;2023-02-23T09:05:08;98259.56;;;11.98;74.92
13312;BME280;34033;48.672;9.376;2023-02-23T09:07:33;98255.50;;;12.21;73.84
13312;BME280;34033;48.672;9.376;2023-02-23T09:09:59;98256.28;;;12.28;73.62
13312;BME280;34033;48.672;9.376;2023-02-23T09:12:24;98253.84;;;12.30;73.39
13312;BME280;34033;48.672;9.376;2023-02-23T09:14:49;98251.41;;;12.36;73.89
13312;BME280;34033;48.672;9.376;2023-02-23T09:17:16;98265.81;;;12.41;73.14
13312;BME280;34033;48.672;9.376;2023-02-23T09:19:42;98268.22;;;12.43;73.49
13312;BME280;34033;48.672;9.376;2023-02-23T09:22:07;98260.25;;;12.34;73.04
13312;BME280;34033;48.672;9.376;2023-02-23T09:24:32;98257.78;;;12.47;73.12
13312;BME280;34033;48.672;9.376;2023-02-23T09:26:59;98265.75;;;12.59;72.88
13312;BME280;34033;48.672;9.376;2023-02-23T09:29:25;98264.44;;;12.78;71.72
13312;BME280;34033;48.672;9.376;2023-02-23T09:31:50;98263.66;;;12.74;71.71
13312;BME280;34033;48.672;9.376;2023-02-23T09:34:18;98260.09;;;12.66;71.54
13312;BME280;34033;48.672;9.376;2023-02-23T09:36:43;98259.72;;;12.61;72.54
13312;BME280;34033;48.672;9.376;2023-02-23T09:39:08;98252.53;;;12.60;72.47
13312;BME280;34033;48.672;9.376;2023-02-23T09:41:59;98264.13;;;12.62;72.41
13312;BME280;34033;48.672;9.376;2023-02-23T09:50:03;98259.97;;;12.87;72.49
13312;BME280;34033;48.672;9.376;2023-02-23T09:52:37;98255.06;;;13.02;72.12
13312;BME280;34033;48.672;9.376;2023-02-23T09:55:04;98261.88;;;13.12;71.40
13312;BME280;34033;48.672;9.376;2023-02-23T09:57:38;98258.63;;;13.17;72.00
13312;BME280;34033;48.672;9.376;2023-02-23T10:00:22;98256.16;;;13.22;71.23
13312;BME280;34033;48.672;9.376;2023-02-23T10:05:37;98256.34;;;13.46;70.38
13312;BME280;34033;48.672;9.376;2023-02-23T10:08:18;98253.44;;;13.60;69.62
13312;BME280;34033;48.672;9.376;2023-02-23T10:10:58;98260.97;;;13.70;70.13
13312;BME280;34033;48.672;9.376;2023-02-23T10:13:41;98255.63;;;13.83;69.19
13312;BME280;34033;48.672;9.376;2023-02-23T10:16:32;98254.28;;;13.98;68.83
13312;BME280;34033;48.672;9.376;2023-02-23T10:19:17;98261.31;;;14.13;68.52
13312;BME280;34033;48.672;9.376;2023-02-23T10:21:55;98258.78;;;14.26;68.70
13312;BME280;34033;48.672;9.376;2023-02-23T10:24:24;98253.84;;;14.37;67.74
13312;BME280;34033;48.672;9.376;2023-02-23T10:26:53;98256.00;;;14.56;66.30
13312;BME280;34033;48.672;9.376;2023-02-23T10:29:33;98251.03;;;14.67;66.49
13312;BME280;34033;48.672;9.376;2023-02-23T10:34:52;98250.31;;;14.93;65.92
13312;BME280;34033;48.672;9.376;2023-02-23T10:37:18;98246.53;;;15.03;65.03
13312;BME280;34033;48.672;9.376;2023-02-23T10:39:44;98244.84;;;15.10;65.20
13312;BME280;34033;48.672;9.376;2023-02-23T10:42:14;98248.00;;;15.12;64.66
13312;BME280;34033;48.672;9.376;2023-02-23T10:44:43;98248.78;;;15.12;64.80
13312;BME280;34033;48.672;9.376;2023-02-23T10:47:15;98239.06;;;15.17;63.68
13312;BME280;34033;48.672;9.376;2023-02-23T10:49:44;98243.88;;;15.20;63.31
13312;BME280;34033;48.672;9.376;2023-02-23T10:52:25;98239.34;;;15.26;62.87
13312;BME280;34033;48.672;9.376;2023-02-23T10:54:52;98235.66;;;15.29;62.38
13312;BME280;34033;48.672;9.376;2023-02-23T10:57:29;98242.19;;;15.22;62.55
13312;BME280;34033;48.672;9.376;2023-02-23T11:02:31;98237.13;;;15.14;62.39
13312;BME280;34033;48.672;9.376;2023-02-23T11:04:59;98242.19;;;15.22;62.44
13312;BME280;34033;48.672;9.376;2023-02-23T11:07:31;98241.78;;;15.24;62.45
13312;BME280;34033;48.672;9.376;2023-02-23T11:09:59;98236.47;;;15.29;62.71
13312;BME280;34033;48.672;9.376;2023-02-23T11:15:20;98231.28;;;15.51;62.21
13312;BME280;34033;48.672;9.376;2023-02-23T11:18:00;98226.78;;;15.57;61.92
13312;BME280;34033;48.672;9.376;2023-02-23T11:20:40;98228.69;;;15.64;61.19
13312;BME280;34033;48.672;9.376;2023-02-23T11:23:10;98225.47;;;15.62;61.28
13312;BME280;34033;48.672;9.376;2023-02-23T11:25:42;98224.69;;;15.61;60.94
13312;BME280;34033;48.672;9.376;2023-02-23T11:28:17;98219.84;;;15.62;60.99
13312;BME280;34033;48.672;9.376;2023-02-23T11:30:47;98221.50;;;15.59;61.10
13312;BME280;34033;48.672;9.376;2023-02-23T11:33:19;98217.91;;;15.59;60.89
13312;BME280;34033;48.672;9.376;2023-02-23T11:35:47;98211.97;;;15.53;60.71
13312;BME280;34033;48.672;9.376;2023-02-23T11:38:23;98215.88;;;15.59;60.66
13312;BME280;34033;48.672;9.376;2023-02-23T11:41:02;98206.63;;;15.59;60.72
13312;BME280;34033;48.672;9.376;2023-02-23T11:43:29;98200.41;;;15.67;60.77
13312;BME280;34033;48.672;9.376;2023-02-23T11:45:56;98201.91;;;15.75;60.23
13312;BME280;34033;48.672;9.376;2023-02-23T11:48:34;98190.63;;;15.75;60.21
13312;BME280;34033;48.672;9.376;2023-02-23T11:51:02;98196.59;;;15.77;59.77
13312;BME280;34033;48.672;9.376;2023-02-23T11:53:36;98196.97;;;15.79;59.60
13312;BME280;34033;48.672;9.376;2023-02-23T11:56:03;98188.91;;;15.81;59.54
13312;BME280;34033;48.672;9.376;2023-02-23T11:58:53;98177.97;;;15.83;59.40
13312;BME280;34033;48.672;9.376;2023-02-23T12:01:34;98182.78;;;15.63;60.26
13312;BME280;34033;48.672;9.376;2023-02-23T12:04:02;98182.66;;;15.70;60.18
13312;BME280;34033;48.672;9.376;2023-02-23T12:06:38;98173.72;;;15.75;59.73
13312;BME280;34033;48.672;9.376;2023-02-23T12:09:27;98183.25;;;15.81;59.48
13312;BME280;34033;48.672;9.376;2023-02-23T12:12:02;98179.19;;;15.82;59.03
13312;BME280;34033;48.672;9.376;2023-02-23T12:14:32;98175.91;;;15.88;58.80
13312;BME280;34033;48.672;9.376;2023-02-23T12:17:23;98178.13;;;15.96;57.61
13312;BME280;34033;48.672;9.376;2023-02-23T12:20:33;98171.41;;;15.90;57.51
13312;BME280;34033;48.672;9.376;2023-02-23T12:22:57;98170.56;;;15.93;57.33
13312;BME280;34033;48.672;9.376;2023-02-23T12:25:44;98172.22;;;15.91;56.42
13312;BME280;34033;48.672;9.376;2023-02-23T12:28:17;98170.91;;;15.95;56.48
13312;BME280;34033;48.672;9.376;2023-02-23T12:30:52;98169.09;;;16.05;56.75
13312;BME280;34033;48.672;9.376;2023-02-23T12:33:20;98152.91;;;16.09;57.49
13312;BME280;34033;48.672;9.376;2023-02-23T12:36:10;98159.84;;;16.24;56.96
13312;BME280;34033;48.672;9.376;2023-02-23T12:39:02;98156.28;;;16.40;56.50
13312;BME280;34033;48.672;9.376;2023-02-23T12:44:34;98150.41;;;16.50;56.52
13312;BME280;34033;48.672;9.376;2023-02-23T12:47:15;98146.13;;;16.62;55.50
13312;BME280;34033;48.672;9.376;2023-02-23T12:49:49;98148.53;;;16.63;55.54
13312;BME280;34033;48.672;9.376;2023-02-23T12:52:24;98142.44;;;16.65;54.58
13312;BME280;34033;48.672;9.376;2023-02-23T12:54:51;98133.69;;;16.59;54.89
13312;BME280;34033;48.672;9.376;2023-02-23T12:57:42;98135.66;;;16.62;55.67
13312;BME280;34033;48.672;9.376;2023-02-23T13:09:12;98131.34;;;16.74;54.31
13312;BME280;34033;48.672;9.376;2023-02-23T13:14:59;98131.72;;;16.56;54.28
13312;BME280;34033;48.672;9.376;2023-02-23T13:17:37;98129.41;;;16.51;54.36
13312;BME280;34033;48.672;9.376;2023-02-23T13:20:32;98126.69;;;16.48;54.26
13312;BME280;34033;48.672;9.376;2023-02-23T13:25:48;98130.78;;;16.43;54.43
13312;BME280;34033;48.672;9.376;2023-02-23T13:28:41;98130.19;;;16.36;54.29
13312;BME280;34033;48.672;9.376;2023-02-23T13:31:33;98127.41;;;16.32;54.10
13312;BME280;34033;48.672;9.376;2023-02-23T13:33:58;98121.16;;;16.05;54.27
13312;BME280;34033;48.672;9.376;2023-02-23T13:36:26;98117.72;;;15.97;54.47
13312;BME280;34033;48.672;9.376;2023-02-23T13:46:52;98121.97;;;15.85;55.42
13312;BME280;34033;48.672;9.376;2023-02-23T13:49:34;98115.66;;;15.78;55.22
13312;BME280;34033;48.672;9.376;2023-02-23T13:52:37;98114.25;;;15.70;55.13
13312;BME280;34033;48.672;9.376;2023-02-23T13:57:50;98112.56;;;15.72;55.00
13312;BME280;34033;48.672;9.376;2023-02-23T14:00:19;98106.28;;;15.84;55.10
13312;BME280;34033;48.672;9.376;2023-02-23T14:02:46;98106.19;;;15.88;55.06
13312;BME280;34033;48.672;9.376;2023-02-23T14:07:50;98099.78;;;15.88;54.64
13312;BME280;34033;48.672;9.376;2023-02-23T14:10:19;98109.69;;;15.96;54.92
13312;BME280;34033;48.672;9.376;2023-02-23T14:18:31;98108.66;;;16.06;54.91
13312;BME280;34033;48.672;9.376;2023-02-23T14:26:14;98109.81;;;16.08;54.62
13312;BME280;34033;48.672;9.376;2023-02-23T14:29:07;98103.38;;;16.08;54.04
13312;BME280;34033;48.672;9.376;2023-02-23T14:31:30;98105.50;;;16.04;54.05
13312;BME280;34033;48.672;9.376;2023-02-23T14:33:59;98100.78;;;15.97;54.81
13312;BME280;34033;48.672;9.376;2023-02-23T14:41:23;98104.44;;;16.34;65.57
13312;BME280;34033;48.672;9.376;2023-02-23T14:43:54;98103.38;;;16.80;58.97
13312;BME280;34033;48.672;9.376;2023-02-23T14:46:24;98106.56;;;17.30;55.79
13312;BME280;34033;48.672;9.376;2023-02-23T14:49:00;98106.88;;;17.32;51.67
13312;BME280;34033;48.672;9.376;2023-02-23T14:54:09;98098.88;;;16.98;52.38
13312;BME280;34033;48.672;9.376;2023-02-23T14:56:44;98100.19;;;16.94;52.50
13312;BME280;34033;48.672;9.376;2023-02-23T14:59:17;98106.31;;;16.92;52.75
13312;BME280;34033;48.672;9.376;2023-02-23T15:01:45;98104.72;;;16.75;52.42
13312;BME280;34033;48.672;9.376;2023-02-23T15:04:23;98104.19;;;16.64;52.68
13312;BME280;34033;48.672;9.376;2023-02-23T15:06:53;98097.50;;;16.54;52.91
13312;BME280;34033;48.672;9.376;2023-02-23T15:09:39;98103.25;;;16.15;53.12
13312;BME280;34033;48.672;9.376;2023-02-23T15:12:16;98105.38;;;16.27;53.83
13312;BME280;34033;48.672;9.376;2023-02-23T15:14:43;98102.59;;;16.07;52.82
13312;BME280;34033;48.672;9.376;2023-02-23T15:17:15;98108.00;;;16.18;53.10